createdAt,value
2023-04-05T00:00:04.438Z,92.63
2023-04-05T00:01:04.427Z,93.36
2023-04-05T00:02:04.544Z,94.09
2023-04-05T00:03:04.501Z,94.13
2023-04-05T00:04:04.505Z,94.03
2023-04-05T00:05:04.384Z,93.82
2023-04-05T00:06:04.380Z,93.71
2023-04-05T00:07:04.357Z,96.02
2023-04-05T00:08:04.355Z,94.13
2023-04-05T00:09:04.334Z,93.71
2023-04-05T00:10:04.328Z,95.43
2023-04-05T00:11:04.322Z,93.97
2023-04-05T00:12:04.304Z,93.34
2023-04-05T00:13:04.299Z,89.63
2023-04-05T00:14:04.288Z,88.37
2023-04-05T00:15:04.275Z,89.00
2023-04-05T00:16:04.274Z,89.84
2023-04-05T00:17:04.266Z,89.42
2023-04-05T00:18:04.272Z,89.11
2023-04-05T00:19:04.225Z,88.06
2023-04-05T00:20:04.224Z,87.12
2023-04-05T00:21:04.212Z,89.48
2023-04-05T00:22:04.221Z,88.90
2023-04-05T00:23:04.180Z,90.26
2023-04-05T00:24:04.175Z,89.22
2023-04-05T00:25:04.190Z,88.27
2023-04-05T00:26:04.152Z,89.63
2023-04-05T00:27:04.144Z,88.06
2023-04-05T00:28:04.129Z,90.16
2023-04-05T00:29:04.117Z,88.27
2023-04-05T00:30:04.105Z,85.86
2023-04-05T00:31:04.093Z,86.91
2023-04-05T00:32:04.106Z,87.01
2023-04-05T00:33:04.096Z,88.27
2023-04-05T00:34:04.087Z,87.74
2023-04-05T00:35:04.047Z,86.18
2023-04-05T00:36:04.071Z,86.55
2023-04-05T00:37:04.031Z,87.23
2023-04-05T00:38:04.019Z,89.00
2023-04-05T00:39:04.006Z,90.16
2023-04-05T00:40:03.992Z,91.52
2023-04-05T00:41:03.990Z,90.68
2023-04-05T00:42:03.977Z,91.14
2023-04-05T00:43:03.977Z,92.19
2023-04-05T00:44:04.015Z,90.05
2023-04-05T00:45:03.948Z,88.84
2023-04-05T00:46:03.977Z,88.17
2023-04-05T00:47:03.922Z,88.06
2023-04-05T00:48:03.941Z,87.23
2023-04-05T00:49:03.899Z,87.23
2023-04-05T00:50:03.917Z,87.85
2023-04-05T00:51:03.883Z,91.31
2023-04-05T00:52:03.865Z,90.93
2023-04-05T00:53:03.852Z,95.23
2023-04-05T00:54:03.841Z,94.95
2023-04-05T00:55:03.836Z,93.27
2023-04-05T00:56:03.824Z,91.77
2023-04-05T00:57:03.806Z,89.88
2023-04-05T00:58:03.793Z,89.57
2023-04-05T00:59:03.803Z,87.99
2023-04-05T01:00:03.799Z,88.62
2023-04-05T01:01:03.782Z,87.89
2023-04-05T01:02:03.749Z,88.42
2023-04-05T01:03:03.782Z,87.99
2023-04-05T01:04:03.901Z,89.50
2023-04-05T01:05:03.720Z,89.92
2023-04-05T01:06:03.731Z,91.91
2023-04-05T01:07:03.694Z,91.18
2023-04-05T01:08:03.682Z,93.59
2023-04-05T01:09:03.675Z,91.96
2023-04-05T01:10:03.660Z,92.27
2023-04-05T01:11:03.650Z,92.06
2023-04-05T01:12:03.648Z,91.01
2023-04-05T01:13:03.626Z,87.76
2023-04-05T01:14:03.617Z,85.83
2023-04-05T01:15:03.604Z,85.10
2023-04-05T01:16:03.605Z,85.73
2023-04-05T01:17:03.586Z,85.42
2023-04-05T01:18:03.605Z,85.83
2023-04-05T01:19:03.561Z,84.79
2023-04-05T01:20:03.547Z,86.99
2023-04-05T01:21:03.536Z,85.10
2023-04-05T01:22:03.543Z,86.19
2023-04-05T01:23:03.520Z,86.82
2023-04-05T01:24:03.504Z,87.45
2023-04-05T01:25:03.491Z,90.59
2023-04-05T01:26:03.478Z,87.87
2023-04-05T01:27:03.471Z,85.35
2023-04-05T01:28:03.457Z,86.29
2023-04-05T01:29:03.446Z,85.88
2023-04-05T01:30:03.433Z,85.98
2023-04-05T01:31:03.466Z,83.36
2023-04-05T01:32:03.414Z,81.99
2023-04-05T01:33:03.421Z,82.62
2023-04-05T01:34:03.404Z,83.67
2023-04-05T01:35:03.379Z,83.88
2023-04-05T01:36:03.425Z,82.52
2023-04-05T01:37:03.360Z,84.62
2023-04-05T01:38:03.380Z,85.46
2023-04-05T01:39:03.341Z,83.88
2023-04-05T01:40:03.320Z,82.62
2023-04-05T01:41:03.314Z,81.47
2023-04-05T01:42:03.304Z,82.10
2023-04-05T01:43:03.292Z,81.89
2023-04-05T01:44:03.309Z,81.05
2023-04-05T01:45:03.267Z,79.79
2023-04-05T01:46:03.314Z,79.48
2023-04-05T01:47:03.247Z,80.77
2023-04-05T01:48:03.289Z,80.00
2023-04-05T01:49:03.225Z,78.85
2023-04-05T01:50:03.221Z,78.01
2023-04-05T01:51:03.205Z,76.96
2023-04-05T01:52:03.188Z,75.81
2023-04-05T01:53:03.182Z,75.39
2023-04-05T01:54:03.221Z,75.29
2023-04-05T01:55:03.159Z,76.86
2023-04-05T01:56:03.152Z,75.39
2023-04-05T01:57:03.142Z,75.92
2023-04-05T01:58:03.130Z,80.84
2023-04-05T01:59:03.156Z,78.99
2023-04-05T02:00:03.104Z,82.45
2023-04-05T02:01:03.124Z,80.15
2023-04-05T02:02:03.074Z,78.67
2023-04-05T02:03:03.126Z,79.97
2023-04-05T02:04:03.059Z,83.01
2023-04-05T02:05:03.088Z,82.91
2023-04-05T02:06:03.028Z,81.02
2023-04-05T02:07:03.045Z,81.69
2023-04-05T02:08:03.028Z,79.58
2023-04-05T02:09:03.004Z,77.34
2023-04-05T02:10:03.014Z,82.84
2023-04-05T02:11:02.981Z,79.27
2023-04-05T02:12:02.973Z,79.58
2023-04-05T02:13:02.953Z,78.43
2023-04-05T02:14:02.952Z,78.33
2023-04-05T02:15:02.935Z,79.58
2023-04-05T02:16:02.968Z,79.83
2023-04-05T02:17:02.920Z,79.17
2023-04-05T02:18:02.927Z,78.12
2023-04-05T02:19:02.888Z,77.70
2023-04-05T02:20:02.874Z,75.18
2023-04-05T02:21:02.884Z,71.71
2023-04-05T02:22:02.857Z,72.66
2023-04-05T02:23:02.843Z,71.99
2023-04-05T02:24:02.830Z,73.04
2023-04-05T02:25:02.824Z,70.14
2023-04-05T02:26:02.832Z,70.10
2023-04-05T02:27:02.803Z,76.86
2023-04-05T02:28:02.787Z,74.97
2023-04-05T02:29:02.778Z,73.39
2023-04-05T02:30:02.796Z,74.23
2023-04-05T02:31:02.760Z,74.76
2023-04-05T02:32:02.805Z,74.76
2023-04-05T02:33:02.765Z,72.34
2023-04-05T02:34:02.724Z,73.71
2023-04-05T02:35:02.713Z,71.19
2023-04-05T02:36:02.746Z,70.45
2023-04-05T02:37:02.708Z,73.08
2023-04-05T02:38:02.710Z,72.76
2023-04-05T02:39:02.712Z,72.13
2023-04-05T02:40:02.663Z,71.40
2023-04-05T02:41:02.655Z,74.55
2023-04-05T02:42:02.660Z,71.40
2023-04-05T02:43:02.623Z,71.08
2023-04-05T02:44:02.621Z,71.61
2023-04-05T02:45:02.618Z,72.27
2023-04-05T02:46:02.672Z,71.22
2023-04-05T02:47:02.594Z,73.63
2023-04-05T02:48:02.582Z,72.58
2023-04-05T02:49:02.566Z,70.06
2023-04-05T02:50:02.582Z,70.24
2023-04-05T02:51:02.546Z,71.43
2023-04-05T02:52:02.524Z,70.90
2023-04-05T02:53:02.513Z,70.80
2023-04-05T02:54:02.497Z,69.33
2023-04-05T02:55:02.490Z,69.12
2023-04-05T02:56:02.480Z,69.23
2023-04-05T02:57:02.481Z,71.75
2023-04-05T02:58:02.480Z,71.98
2023-04-05T02:59:02.548Z,72.30
2023-04-05T03:00:02.439Z,72.51
2023-04-05T03:01:02.442Z,74.09
2023-04-05T03:02:02.408Z,71.15
2023-04-05T03:03:02.475Z,69.99
2023-04-05T03:04:02.451Z,67.68
2023-04-05T03:05:02.443Z,68.07
2023-04-05T03:06:02.364Z,69.96
2023-04-05T03:07:02.354Z,66.28
2023-04-05T03:08:02.391Z,66.42
2023-04-05T03:09:02.332Z,66.94
2023-04-05T03:10:02.328Z,65.97
2023-04-05T03:11:02.307Z,67.79
2023-04-05T03:12:02.294Z,63.45
2023-04-05T03:13:02.285Z,65.86
2023-04-05T03:14:02.296Z,67.47
2023-04-05T03:15:02.265Z,66.00
2023-04-05T03:16:02.253Z,66.42
2023-04-05T03:17:02.393Z,69.46
2023-04-05T03:18:02.255Z,67.79
2023-04-05T03:19:02.284Z,63.79
2023-04-05T03:20:02.207Z,68.20
2023-04-05T03:21:02.216Z,66.94
2023-04-05T03:22:02.182Z,64.00
2023-04-05T03:23:02.171Z,65.16
2023-04-05T03:24:02.182Z,66.42
2023-04-05T03:25:02.148Z,65.47
2023-04-05T03:26:02.140Z,67.79
2023-04-05T03:27:02.128Z,70.44
2023-04-05T03:28:02.116Z,69.71
2023-04-05T03:29:02.116Z,68.65
2023-04-05T03:30:02.168Z,69.18
2023-04-05T03:31:02.103Z,70.34
2023-04-05T03:32:02.075Z,70.97
2023-04-05T03:33:02.089Z,70.37
2023-04-05T03:34:02.053Z,72.27
2023-04-05T03:35:02.068Z,69.21
2023-04-05T03:36:02.078Z,67.85
2023-04-05T03:37:02.023Z,69.00
2023-04-05T03:38:02.005Z,71.31
2023-04-05T03:39:02.002Z,69.00
2023-04-05T03:40:02.049Z,68.37
2023-04-05T03:41:01.977Z,67.74
2023-04-05T03:42:01.961Z,66.13
2023-04-05T03:43:01.976Z,64.34
2023-04-05T03:44:01.940Z,62.45
2023-04-05T03:45:01.937Z,63.61
2023-04-05T03:46:01.992Z,63.19
2023-04-05T03:47:01.939Z,62.45
2023-04-05T03:48:01.907Z,63.40
2023-04-05T03:49:01.890Z,64.14
2023-04-05T03:50:01.882Z,63.40
2023-04-05T03:51:01.866Z,64.76
2023-04-05T03:52:01.858Z,64.66
2023-04-05T03:53:01.850Z,62.87
2023-04-05T03:54:01.834Z,63.29
2023-04-05T03:55:01.823Z,64.56
2023-04-05T03:56:01.816Z,62.98
2023-04-05T03:57:01.799Z,65.84
2023-04-05T03:58:01.792Z,67.21
2023-04-05T03:59:01.801Z,65.64
2023-04-05T04:00:01.784Z,64.90
2023-04-05T04:01:01.757Z,66.16
2023-04-05T04:02:01.960Z,54.91
2023-04-05T04:03:01.755Z,60.56
2023-04-05T04:04:01.718Z,61.64
2023-04-05T04:05:01.774Z,66.06
2023-04-05T04:06:01.769Z,63.75
2023-04-05T04:07:01.691Z,64.58
2023-04-05T04:08:01.676Z,64.06
2023-04-05T04:09:01.668Z,63.85
2023-04-05T04:10:01.669Z,63.11
2023-04-05T04:11:01.644Z,63.21
2023-04-05T04:12:01.633Z,62.90
2023-04-05T04:13:01.625Z,61.43
2023-04-05T04:14:01.612Z,60.90
2023-04-05T04:15:01.602Z,63.85
2023-04-05T04:16:01.620Z,65.22
2023-04-05T04:17:01.592Z,63.11
2023-04-05T04:18:01.630Z,64.48
2023-04-05T04:19:01.557Z,65.64
2023-04-05T04:20:01.548Z,63.11
2023-04-05T04:21:01.543Z,63.11
2023-04-05T04:22:01.532Z,67.24
2023-04-05T04:23:01.529Z,64.29
2023-04-05T04:24:01.503Z,65.14
2023-04-05T04:25:01.497Z,65.03
2023-04-05T04:26:01.482Z,63.56
2023-04-05T04:27:01.470Z,64.51
2023-04-05T04:28:01.460Z,65.70
2023-04-05T04:29:01.453Z,63.90
2023-04-05T04:30:01.491Z,66.85
2023-04-05T04:31:01.425Z,64.96
2023-04-05T04:32:01.452Z,65.06
2023-04-05T04:33:01.423Z,64.54
2023-04-05T04:34:01.424Z,65.70
2023-04-05T04:35:01.384Z,63.80
2023-04-05T04:36:01.400Z,63.70
2023-04-05T04:37:01.359Z,62.96
2023-04-05T04:38:01.350Z,62.15
2023-04-05T04:39:01.342Z,61.80
2023-04-05T04:40:01.350Z,60.43
2023-04-05T04:41:01.317Z,59.91
2023-04-05T04:42:01.310Z,60.75
2023-04-05T04:43:01.296Z,60.99
2023-04-05T04:44:01.338Z,61.61
2023-04-05T04:45:01.291Z,62.15
2023-04-05T04:46:01.352Z,63.41
2023-04-05T04:47:01.255Z,60.77
2023-04-05T04:48:01.377Z,61.72
2023-04-05T04:49:01.233Z,62.04
2023-04-05T04:50:01.253Z,62.04
2023-04-05T04:51:01.211Z,61.09
2023-04-05T04:52:01.198Z,60.88
2023-04-05T04:53:01.189Z,64.88
2023-04-05T04:54:01.248Z,62.88
2023-04-05T04:55:01.166Z,62.46
2023-04-05T04:56:01.165Z,62.57
2023-04-05T04:57:01.143Z,62.77
2023-04-05T04:58:01.134Z,61.80
2023-04-05T04:59:01.184Z,62.22
2023-04-05T05:00:01.112Z,61.59
2023-04-05T05:01:01.116Z,61.38
2023-04-05T05:02:01.094Z,60.22
2023-04-05T05:03:01.110Z,59.48
2023-04-05T05:04:01.079Z,58.83
2023-04-05T05:05:01.077Z,58.51
2023-04-05T05:06:01.075Z,59.03
2023-04-05T05:07:01.037Z,59.88
2023-04-05T05:08:01.031Z,58.72
2023-04-05T05:09:01.015Z,58.30
2023-04-05T05:10:01.022Z,56.30
2023-04-05T05:11:01.002Z,56.59
2023-04-05T05:12:01.001Z,58.30
2023-04-05T05:13:00.971Z,57.04
2023-04-05T05:14:00.970Z,57.43
2023-04-05T05:15:00.950Z,57.01
2023-04-05T05:16:00.942Z,55.96
2023-04-05T05:17:01.039Z,60.59
2023-04-05T05:18:01.003Z,60.27
2023-04-05T05:19:00.910Z,60.48
2023-04-05T05:20:00.909Z,58.59
2023-04-05T05:21:00.885Z,58.59
2023-04-05T05:22:00.898Z,58.48
2023-04-05T05:23:00.866Z,57.43
2023-04-05T05:24:00.853Z,59.11
2023-04-05T05:25:00.842Z,57.96
2023-04-05T05:26:00.837Z,56.56
2023-04-05T05:27:00.820Z,57.30
2023-04-05T05:28:00.811Z,57.09
2023-04-05T05:29:00.804Z,56.25
2023-04-05T05:30:00.800Z,57.20
2023-04-05T05:31:00.807Z,60.03
2023-04-05T05:32:00.767Z,63.40
2023-04-05T05:33:00.795Z,61.82
2023-04-05T05:34:00.747Z,61.40
2023-04-05T05:35:00.735Z,60.35
2023-04-05T05:36:00.767Z,60.77
2023-04-05T05:37:00.718Z,58.14
2023-04-05T05:38:00.727Z,58.11
2023-04-05T05:39:00.688Z,56.75
2023-04-05T05:40:00.716Z,57.90
2023-04-05T05:41:00.671Z,55.17
2023-04-05T05:42:00.654Z,55.46
2023-04-05T05:43:00.647Z,51.68
2023-04-05T05:44:00.634Z,52.73
2023-04-05T05:45:00.641Z,56.17
2023-04-05T05:46:00.637Z,53.76
2023-04-05T05:47:00.601Z,53.55
2023-04-05T05:48:00.658Z,48.17
2023-04-05T05:49:00.575Z,49.41
2023-04-05T05:50:00.570Z,49.91
2023-04-05T05:51:00.556Z,50.43
2023-04-05T05:52:00.564Z,51.38
2023-04-05T05:53:01.804Z,54.10
2023-04-05T05:54:00.554Z,58.19
2023-04-05T05:55:00.515Z,57.78
2023-04-05T05:56:00.513Z,60.29
2023-04-05T05:57:00.511Z,57.64
2023-04-05T05:58:00.496Z,56.77
2023-04-05T05:59:00.532Z,58.11
2023-04-05T06:00:00.478Z,58.53
2023-04-05T06:01:00.452Z,63.81
2023-04-05T06:02:00.435Z,66.22
2023-04-05T06:03:00.472Z,69.01
2023-04-05T06:04:00.562Z,74.14
2023-04-05T06:05:00.432Z,78.42
2023-04-05T06:06:00.406Z,80.20
2023-04-05T06:07:00.380Z,81.15
2023-04-05T06:08:00.378Z,92.82
2023-04-05T06:09:00.362Z,89.89
2023-04-05T06:10:00.374Z,91.03
2023-04-05T06:11:00.347Z,93.61
2023-04-05T06:12:00.325Z,99.99
2023-04-05T06:13:00.311Z,99.99
2023-04-05T06:14:00.303Z,99.99
2023-04-05T06:15:00.297Z,99.99
2023-04-05T06:16:00.323Z,99.99
2023-04-05T06:17:00.277Z,99.99
2023-04-05T06:18:00.326Z,99.99
2023-04-05T06:19:00.329Z,99.99
2023-04-05T06:20:00.240Z,99.99
2023-04-05T06:21:00.225Z,99.99
2023-04-05T06:22:00.215Z,99.99
2023-04-05T06:23:00.203Z,99.99
2023-04-05T06:24:00.191Z,99.99
2023-04-05T06:25:00.212Z,99.99
2023-04-05T06:26:00.197Z,99.99
2023-04-05T06:27:00.195Z,99.99
2023-04-05T06:28:00.197Z,99.99
2023-04-05T06:29:00.174Z,99.99
2023-04-05T06:30:00.280Z,99.99
2023-04-05T06:31:00.235Z,99.99
2023-04-05T06:32:00.258Z,99.99
2023-04-05T06:33:00.187Z,99.99
2023-04-05T06:34:00.214Z,99.99
2023-04-05T06:35:00.434Z,99.99
2023-04-05T06:36:00.092Z,99.99
2023-04-05T06:37:00.048Z,99.99
2023-04-05T06:38:00.073Z,99.99
2023-04-05T06:39:00.048Z,99.99
2023-04-05T06:40:00.022Z,99.99
2023-04-05T06:40:59.998Z,99.99
2023-04-05T06:42:00.044Z,99.99
2023-04-05T06:42:59.989Z,99.99
2023-04-05T06:43:59.964Z,99.99
2023-04-05T06:44:59.961Z,99.99
2023-04-05T06:46:00.044Z,99.99
2023-04-05T06:46:59.933Z,99.99
2023-04-05T06:47:59.941Z,99.99
2023-04-05T06:49:02.256Z,99.99
2023-04-05T06:49:59.906Z,99.99
2023-04-05T06:50:59.884Z,99.99
2023-04-05T06:51:59.876Z,99.99
2023-04-05T06:52:59.866Z,95.87
2023-04-05T06:53:59.857Z,98.31
2023-04-05T06:54:59.838Z,97.85
2023-04-05T06:55:59.827Z,95.32
2023-04-05T06:57:01.809Z,95.12
2023-04-05T06:57:59.859Z,95.28
2023-04-05T06:58:59.824Z,93.69
2023-04-05T06:59:59.786Z,91.63
2023-04-05T07:00:59.803Z,88.95
2023-04-05T07:01:59.785Z,88.53
2023-04-05T07:02:59.794Z,90.66
2023-04-05T07:03:59.777Z,91.89
2023-04-05T07:04:59.730Z,87.83
2023-04-05T07:05:59.718Z,87.46
2023-04-05T07:06:59.704Z,88.49
2023-04-05T07:07:59.712Z,87.52
2023-04-05T07:08:59.686Z,86.18
2023-04-05T07:09:59.716Z,85.63
2023-04-05T07:10:59.657Z,84.25
2023-04-05T07:11:59.650Z,83.70
2023-04-05T07:12:59.639Z,83.28
2023-04-05T07:13:59.650Z,82.05
2023-04-05T07:14:59.618Z,81.84
2023-04-05T07:15:59.641Z,82.77
2023-04-05T07:16:59.619Z,82.67
2023-04-05T07:17:59.612Z,83.11
2023-04-05T07:18:59.566Z,81.21
2023-04-05T07:19:59.562Z,80.97
2023-04-05T07:20:59.547Z,79.43
2023-04-05T07:21:59.539Z,78.30
2023-04-05T07:22:59.524Z,77.55
2023-04-05T07:23:59.514Z,76.62
2023-04-05T07:24:59.501Z,76.48
2023-04-05T07:25:59.500Z,76.21
2023-04-05T07:26:59.477Z,75.80
2023-04-05T07:27:59.469Z,76.28
2023-04-05T07:28:59.462Z,77.06
2023-04-05T07:29:59.474Z,75.69
2023-04-05T07:30:59.438Z,74.46
2023-04-05T07:31:59.458Z,73.61
2023-04-05T07:32:59.431Z,73.74
2023-04-05T07:33:59.402Z,75.42
2023-04-05T07:34:59.419Z,76.38
2023-04-05T07:35:59.404Z,76.65
2023-04-05T07:36:59.367Z,75.90
2023-04-05T07:37:59.355Z,75.62
2023-04-05T07:38:59.355Z,73.36
2023-04-05T07:39:59.333Z,73.64
2023-04-05T07:40:59.335Z,73.44
2023-04-05T07:41:59.316Z,73.23
2023-04-05T07:42:59.301Z,72.52
2023-04-05T07:43:59.292Z,71.93
2023-04-05T07:44:59.277Z,72.51
2023-04-05T07:45:59.309Z,75.25
2023-04-05T07:46:59.272Z,76.04
2023-04-05T07:47:59.275Z,74.46
2023-04-05T07:48:59.231Z,75.52
2023-04-05T07:49:59.228Z,72.44
2023-04-05T07:50:59.210Z,72.96
2023-04-05T07:51:59.211Z,73.44
2023-04-05T07:52:59.185Z,72.96
2023-04-05T07:54:00.700Z,70.67
2023-04-05T07:54:59.167Z,69.62
2023-04-05T07:55:59.194Z,67.98
2023-04-05T07:56:59.145Z,64.64
2023-04-05T07:57:59.134Z,65.97
2023-04-05T07:58:59.166Z,66.85
2023-04-05T07:59:59.109Z,69.07
2023-04-05T08:00:59.101Z,69.14
2023-04-05T08:02:04.974Z,67.91
2023-04-05T08:03:02.036Z,69.24
2023-04-05T08:03:59.249Z,68.73
2023-04-05T08:04:59.111Z,69.24
2023-04-05T08:05:59.040Z,70.20
2023-04-05T08:06:59.029Z,67.13
2023-04-05T08:07:59.025Z,66.49
2023-04-05T08:08:59.012Z,66.59
2023-04-05T08:09:59.008Z,64.79
2023-04-05T08:10:58.986Z,66.50
2023-04-05T08:11:58.975Z,64.36
2023-04-05T08:12:58.965Z,64.22
2023-04-05T08:13:58.975Z,63.22
2023-04-05T08:14:58.946Z,64.18
2023-04-05T08:15:59.043Z,64.39
2023-04-05T08:16:58.915Z,64.22
2023-04-05T08:17:59.035Z,64.20
2023-04-05T08:18:58.906Z,60.66
2023-04-05T08:19:58.883Z,61.57
2023-04-05T08:20:58.892Z,60.86
2023-04-05T08:21:58.868Z,61.37
2023-04-05T08:22:58.848Z,61.75
2023-04-05T08:23:58.863Z,61.11
2023-04-05T08:24:58.862Z,59.25
2023-04-05T08:25:58.825Z,58.20
2023-04-05T08:26:58.805Z,57.82
2023-04-05T08:27:58.796Z,57.01
2023-04-05T08:28:58.782Z,56.02
2023-04-05T08:29:58.801Z,56.55
2023-04-05T08:30:58.788Z,56.50
2023-04-05T08:31:58.889Z,57.93
2023-04-05T08:32:58.841Z,56.91
2023-04-05T08:33:58.831Z,57.70
2023-04-05T08:34:58.716Z,58.82
2023-04-05T08:35:58.749Z,58.11
2023-04-05T08:36:58.700Z,58.67
2023-04-05T08:37:58.683Z,57.44
2023-04-05T08:38:58.669Z,58.05
2023-04-05T08:39:58.661Z,56.42
2023-04-05T08:40:58.659Z,58.13
2023-04-05T08:41:58.640Z,56.75
2023-04-05T08:42:58.623Z,55.78
2023-04-05T08:43:58.616Z,53.02
2023-04-05T08:44:58.606Z,50.15
2023-04-05T08:45:58.706Z,50.15
2023-04-05T08:46:58.631Z,53.30
2023-04-05T08:47:58.609Z,52.99
2023-04-05T08:48:58.572Z,51.79
2023-04-05T08:49:58.586Z,53.04
2023-04-05T08:50:58.550Z,53.47
2023-04-05T08:51:58.533Z,54.00
2023-04-05T08:52:58.535Z,53.37
2023-04-05T08:53:58.526Z,52.91
2023-04-05T08:54:58.516Z,52.76
2023-04-05T08:55:58.505Z,51.93
2023-04-05T08:56:58.559Z,50.93
2023-04-05T08:57:58.464Z,51.06
2023-04-05T08:58:58.576Z,49.95
2023-04-05T08:59:58.445Z,48.22
2023-04-05T09:00:58.481Z,48.24
2023-04-05T09:01:59.331Z,51.54
2023-04-05T09:02:58.500Z,52.63
2023-04-05T09:03:58.403Z,51.98
2023-04-05T09:04:58.386Z,46.95
2023-04-05T09:05:58.407Z,46.02
2023-04-05T09:06:58.399Z,46.53
2023-04-05T09:07:58.361Z,47.82
2023-04-05T09:08:58.343Z,47.72
2023-04-05T09:09:58.330Z,46.10
2023-04-05T09:10:58.320Z,45.37
2023-04-05T09:11:58.308Z,44.66
2023-04-05T09:12:58.299Z,43.24
2023-04-05T09:13:58.293Z,43.06
2023-04-05T09:14:58.449Z,44.38
2023-04-05T09:15:58.275Z,43.79
2023-04-05T09:16:58.361Z,44.62
2023-04-05T09:17:58.339Z,44.30
2023-04-05T09:18:58.245Z,44.48
2023-04-05T09:19:58.225Z,45.67
2023-04-05T09:20:58.216Z,45.03
2023-04-05T09:21:58.234Z,44.67
2023-04-05T09:22:58.192Z,44.06
2023-04-05T09:23:58.177Z,41.80
2023-04-05T09:24:58.183Z,42.61
2023-04-05T09:25:58.163Z,41.77
2023-04-05T09:26:58.201Z,41.34
2023-04-05T09:27:58.138Z,41.24
2023-04-05T09:28:58.129Z,43.59
2023-04-05T09:29:58.125Z,43.89
2023-04-05T09:30:58.107Z,44.20
2023-04-05T09:31:58.123Z,43.57
2023-04-05T09:32:58.110Z,41.85
2023-04-05T09:33:58.082Z,40.28
2023-04-05T09:34:58.061Z,42.57
2023-04-05T09:35:58.060Z,44.20
2023-04-05T09:36:58.095Z,43.85
2023-04-05T09:37:58.057Z,41.80
2023-04-05T09:38:58.017Z,43.87
2023-04-05T09:39:58.005Z,43.75
2023-04-05T09:40:58.010Z,41.71
2023-04-05T09:41:57.983Z,40.98
2023-04-05T09:42:57.978Z,40.06
2023-04-05T09:43:57.962Z,40.67
2023-04-05T09:44:57.972Z,41.99
2023-04-05T09:45:57.958Z,39.19
2023-04-05T09:46:57.971Z,40.83
2023-04-05T09:47:58.205Z,39.88
2023-04-05T09:48:57.924Z,37.07
2023-04-05T09:49:57.896Z,40.29
2023-04-05T09:51:03.714Z,36.65
2023-04-05T09:51:57.874Z,39.06
2023-04-05T09:52:57.864Z,38.73
2023-04-05T09:53:57.877Z,40.33
2023-04-05T09:54:57.862Z,37.82
2023-04-05T09:55:57.825Z,36.19
2023-04-05T09:56:57.963Z,37.66
2023-04-05T09:57:57.826Z,36.79
2023-04-05T09:58:57.834Z,37.62
2023-04-05T09:59:57.780Z,37.55
2023-04-05T10:01:09.726Z,39.26
2023-04-05T10:01:58.818Z,37.13
2023-04-05T10:02:57.887Z,38.85
2023-04-05T10:03:57.838Z,39.68
2023-04-05T10:04:57.735Z,38.53
2023-04-05T10:05:57.723Z,41.02
2023-04-05T10:06:57.753Z,38.57
2023-04-05T10:07:57.687Z,39.57
2023-04-05T10:08:57.694Z,37.21
2023-04-05T10:09:57.697Z,35.30
2023-04-05T10:10:57.669Z,35.23
2023-04-05T10:11:57.644Z,34.45
2023-04-05T10:12:57.644Z,33.97
2023-04-05T10:13:57.623Z,36.27
2023-04-05T10:14:57.618Z,34.75
2023-04-05T10:15:57.662Z,34.12
2023-04-05T10:16:57.645Z,34.19
2023-04-05T10:17:57.592Z,35.26
2023-04-05T10:18:57.567Z,35.95
2023-04-05T10:19:57.573Z,32.83
2023-04-05T10:20:57.568Z,33.42
2023-04-05T10:21:57.560Z,33.82
2023-04-05T10:22:57.566Z,32.73
2023-04-05T10:23:57.569Z,31.75
2023-04-05T10:24:57.508Z,32.96
2023-04-05T10:25:57.580Z,32.78
2023-04-05T10:26:57.554Z,32.87
2023-04-05T10:27:57.467Z,34.66
2023-04-05T10:28:57.491Z,33.72
2023-04-05T10:29:57.448Z,32.51
2023-04-05T10:30:57.454Z,32.58
2023-04-05T10:31:57.477Z,31.89
2023-04-05T10:32:57.569Z,31.51
2023-04-05T10:33:57.438Z,31.49
2023-04-05T10:34:57.462Z,30.79
2023-04-05T10:35:57.396Z,32.17
2023-04-05T10:36:57.522Z,34.41
2023-04-05T10:37:57.359Z,32.67
2023-04-05T10:38:58.858Z,33.15
2023-04-05T10:39:57.429Z,33.10
2023-04-05T10:40:57.352Z,32.26
2023-04-05T10:41:57.364Z,30.46
2023-04-05T10:42:57.331Z,29.95
2023-04-05T10:43:57.330Z,29.57
2023-04-05T10:44:57.320Z,30.80
2023-04-05T10:45:57.379Z,30.88
2023-04-05T10:46:57.396Z,32.71
2023-04-05T10:47:57.297Z,32.14
2023-04-05T10:48:57.249Z,32.12
2023-04-05T10:49:57.229Z,31.84
2023-04-05T10:50:57.226Z,32.34
2023-04-05T10:51:57.212Z,31.32
2023-04-05T10:52:57.193Z,31.40
2023-04-05T10:53:57.183Z,31.29
2023-04-05T10:54:57.200Z,31.30
2023-04-05T10:55:57.165Z,29.69
2023-04-05T10:56:57.198Z,30.80
2023-04-05T10:57:57.163Z,31.33
2023-04-05T10:58:57.159Z,31.46
2023-04-05T10:59:57.158Z,34.82
2023-04-05T11:00:57.167Z,32.52
2023-04-05T11:01:57.195Z,34.62
2023-04-05T11:02:57.182Z,33.06
2023-04-05T11:03:57.258Z,31.82
2023-04-05T11:04:57.373Z,31.42
2023-04-05T11:05:57.055Z,33.84
2023-04-05T11:06:57.042Z,32.11
2023-04-05T11:07:57.032Z,31.85
2023-04-05T11:08:57.031Z,31.85
2023-04-05T11:09:57.048Z,33.44
2023-04-05T11:10:57.025Z,31.40
2023-04-05T11:11:56.993Z,31.48
2023-04-05T11:12:56.981Z,31.85
2023-04-05T11:13:56.999Z,29.12
2023-04-05T11:14:56.961Z,29.11
2023-04-05T11:15:56.948Z,28.29
2023-04-05T11:16:57.231Z,28.15
2023-04-05T11:17:56.990Z,27.56
2023-04-05T11:18:56.920Z,28.78
2023-04-05T11:19:56.905Z,28.72
2023-04-05T11:20:56.895Z,30.54
2023-04-05T11:21:56.884Z,32.11
2023-04-05T11:22:56.875Z,30.40
2023-04-05T11:23:56.864Z,32.12
2023-04-05T11:24:56.856Z,31.91
2023-04-05T11:25:56.842Z,32.53
2023-04-05T11:26:56.840Z,32.11
2023-04-05T11:27:56.821Z,31.17
2023-04-05T11:28:56.809Z,31.88
2023-04-05T11:29:56.826Z,30.54
2023-04-05T11:30:57.214Z,30.07
2023-04-05T11:31:56.780Z,30.71
2023-04-05T11:32:56.843Z,30.71
2023-04-05T11:33:57.999Z,31.79
2023-04-05T11:34:56.750Z,31.05
2023-04-05T11:35:56.760Z,30.04
2023-04-05T11:36:56.723Z,31.19
2023-04-05T11:37:56.714Z,31.23
2023-04-05T11:38:56.727Z,33.06
2023-04-05T11:39:56.687Z,32.66
2023-04-05T11:40:56.683Z,33.21
2023-04-05T11:41:56.671Z,35.85
2023-04-05T11:42:56.665Z,34.15
2023-04-05T11:43:56.645Z,33.56
2023-04-05T11:44:56.633Z,35.58
2023-04-05T11:45:56.648Z,35.44
2023-04-05T11:46:56.636Z,33.18
2023-04-05T11:47:56.661Z,32.04
2023-04-05T11:48:56.600Z,32.39
2023-04-05T11:49:56.592Z,31.82
2023-04-05T11:50:56.571Z,33.68
2023-04-05T11:51:56.570Z,32.98
2023-04-05T11:52:56.563Z,32.56
2023-04-05T11:53:56.539Z,32.12
2023-04-05T11:54:56.545Z,33.25
2023-04-05T11:55:56.520Z,32.37
2023-04-05T11:56:56.506Z,32.84
2023-04-05T11:57:56.491Z,31.91
2023-04-05T11:58:56.501Z,32.63
2023-04-05T11:59:56.467Z,33.15
2023-04-05T12:00:56.460Z,33.26
2023-04-05T12:01:56.475Z,33.39
2023-04-05T12:02:56.499Z,33.88
2023-04-05T12:03:56.576Z,33.44
2023-04-05T12:04:56.461Z,33.99
2023-04-05T12:05:56.407Z,31.65
2023-04-05T12:06:56.409Z,32.26
2023-04-05T12:07:56.381Z,31.14
2023-04-05T12:08:56.364Z,31.51
2023-04-05T12:09:56.355Z,29.49
2023-04-05T12:10:56.375Z,29.31
2023-04-05T12:11:56.338Z,30.52
2023-04-05T12:12:56.327Z,31.43
2023-04-05T12:13:56.313Z,31.24
2023-04-05T12:14:56.302Z,32.26
2023-04-05T12:15:56.325Z,31.21
2023-04-05T12:16:56.314Z,30.60
2023-04-05T12:17:56.324Z,30.45
2023-04-05T12:18:56.295Z,29.45
2023-04-05T12:19:56.262Z,29.85
2023-04-05T12:20:56.256Z,30.04
2023-04-05T12:21:56.233Z,29.09
2023-04-05T12:22:56.221Z,29.50
2023-04-05T12:23:56.205Z,29.82
2023-04-05T12:24:56.190Z,31.00
2023-04-05T12:25:56.188Z,29.63
2023-04-05T12:26:58.603Z,31.04
2023-04-05T12:27:56.170Z,31.68
2023-04-05T12:28:56.445Z,32.06
2023-04-05T12:29:56.195Z,31.63
2023-04-05T12:30:56.122Z,32.43
2023-04-05T12:31:56.181Z,30.46
2023-04-05T12:32:56.114Z,31.29
2023-04-05T12:33:56.114Z,31.57
2023-04-05T12:34:56.080Z,32.29
2023-04-05T12:35:56.097Z,31.07
2023-04-05T12:36:56.060Z,32.76
2023-04-05T12:37:56.045Z,34.37
2023-04-05T12:38:56.040Z,36.05
2023-04-05T12:39:56.032Z,36.19
2023-04-05T12:40:56.012Z,33.98
2023-04-05T12:41:56.002Z,34.64
2023-04-05T12:42:55.992Z,35.26
2023-04-05T12:43:55.982Z,35.94
2023-04-05T12:44:55.968Z,37.79
2023-04-05T12:45:56.048Z,38.23
2023-04-05T12:46:55.949Z,37.78
2023-04-05T12:47:55.979Z,39.30
2023-04-05T12:48:55.923Z,40.72
2023-04-05T12:49:55.934Z,38.82
2023-04-05T12:50:55.903Z,38.51
2023-04-05T12:51:55.889Z,35.30